Time;durP1;ratioP1;P1;durP2;ratioP2;P2;SDS_P1;SDS_P2;PMS_P1;PMS_P2;Temp;Humidity;BMP_temperature;BMP_pressure;BME280_temperature;BME280_humidity;BME280_pressure;Samples;Min_cycle;Max_cycle;Signal;HPM_P1;HPM_P2
2022/06/12 00:03:59;;;;;;;14.05;3.42;;;;;;;20.22;56.77;100111.34;7709382;32;40455;-75
2022/06/12 00:08:16;;;;;;;4.43;3.25;;;;;;;19.96;57.92;100111.41;7709132;32;37942;-75
2022/06/12 00:12:32;;;;;;;6.82;3.53;;;;;;;20.04;57.76;100113.34;7708977;32;37359;-74
2022/06/12 00:16:52;;;;;;;6.18;2.90;;;;;;;20.04;57.66;100109.75;7709313;32;39379;-74
2022/06/12 00:21:12;;;;;;;6.53;3.47;;;;;;;20.06;57.56;100111.06;7709127;32;39604;-74
2022/06/12 00:25:30;;;;;;;8.90;3.25;;;;;;;19.81;58.58;100109.13;7707845;32;37554;-75
2022/06/12 00:29:47;;;;;;;6.97;3.10;;;;;;;19.66;59.13;100104.87;7711432;32;37230;-73
2022/06/12 00:34:03;;;;;;;6.35;3.45;;;;;;;19.81;58.73;100109.94;7713093;32;37768;-75
2022/06/12 00:38:19;;;;;;;5.90;3.08;;;;;;;19.75;58.50;100105.72;7712720;32;39913;-73
2022/06/12 00:42:40;;;;;;;4.70;3.08;;;;;;;19.80;58.11;100108.31;7712576;32;38630;-74
2022/06/12 00:47:02;;;;;;;4.62;3.10;;;;;;;19.93;57.41;100092.69;7712665;32;37132;-75
2022/06/12 00:51:19;;;;;;;6.03;3.00;;;;;;;19.79;57.51;100098.37;7712375;32;40656;-74
2022/06/12 00:55:45;;;;;;;4.28;2.80;;;;;;;19.85;57.18;100099.88;7712488;32;41210;-74
2022/06/12 01:00:09;;;;;;;5.57;3.22;;;;;;;19.68;57.69;100092.34;7712637;32;38881;-75
2022/06/12 01:09:11;;;;;;;9.10;4.78;;;;;;;19.29;59.07;100083.06;7711969;32;39063;-75
2022/06/12 01:13:37;;;;;;;7.80;3.42;;;;;;;19.22;59.05;100085.47;7712317;32;39830;-75
2022/06/12 01:17:53;;;;;;;7.28;3.20;;;;;;;19.41;58.46;100082.41;7711122;32;38822;-74
2022/06/12 01:22:47;;;;;;;8.10;3.72;;;;;;;19.51;58.09;100078.53;7710475;32;37871;-74
2022/06/12 01:27:35;;;;;;;8.23;3.92;;;;;;;19.31;58.67;100082.72;7712117;32;39518;-75
2022/06/12 01:32:08;;;;;;;7.53;3.53;;;;;;;19.11;59.16;100082.22;7711856;32;39936;-74
2022/06/12 01:36:52;;;;;;;4.05;3.17;;;;;;;19.29;58.64;100079.47;7711777;32;38026;-74
2022/06/12 01:41:30;;;;;;;6.60;3.30;;;;;;;19.30;58.27;100075.59;7711275;32;37788;-74
2022/06/12 01:45:54;;;;;;;7.45;3.40;;;;;;;18.96;59.20;100077.16;7710987;32;39547;-73
2022/06/12 01:50:24;;;;;;;4.37;3.15;;;;;;;18.77;59.60;100080.94;7711919;32;39594;-74
2022/06/12 01:55:06;;;;;;;10.15;3.50;;;;;;;18.78;59.59;100087.28;7710642;32;38039;-74
2022/06/12 01:59:31;;;;;;;8.05;3.45;;;;;;;18.82;59.59;100080.03;7710410;32;36920;-74
2022/06/12 02:04:13;;;;;;;8.65;3.50;;;;;;;18.86;59.69;100069.16;7710252;32;39312;-74
2022/06/12 02:08:45;;;;;;;8.30;3.12;;;;;;;18.64;60.41;100064.50;7711223;32;39862;-74
2022/06/12 02:13:28;;;;;;;6.43;3.33;;;;;;;18.84;59.08;100063.13;7711561;32;37732;-75
2022/06/12 02:17:51;;;;;;;;;;;;;;;18.87;58.74;100062.50;7711376;32;36851;-75
2022/06/12 02:22:28;;;;;;;7.50;3.20;;;;;;;18.55;59.64;100070.78;7711391;32;39558;-75
2022/06/12 02:27:02;;;;;;;4.75;3.15;;;;;;;18.49;59.83;100074.00;7710263;32;40179;-74
2022/06/12 02:31:24;;;;;;;9.25;3.72;;;;;;;18.40;60.09;100076.72;7710335;32;38522;-74
2022/06/12 02:36:08;;;;;;;5.25;3.37;;;;;;;18.20;60.88;100078.91;7709904;32;36849;-74
2022/06/12 02:40:26;;;;;;;;;;;;;;;18.57;59.47;100082.34;7711616;32;39264;-74
2022/06/12 02:44:51;;;;;;;6.20;3.30;;;;;;;18.68;58.83;100082.03;7711358;32;40228;-74
2022/06/12 02:49:09;;;;;;;4.57;3.17;;;;;;;18.32;60.06;100080.28;7711210;32;37663;-74
2022/06/12 02:53:39;;;;;;;6.68;3.62;;;;;;;18.27;60.48;100083.19;7710180;32;38011;-74
2022/06/12 02:58:10;;;;;;;5.30;3.35;;;;;;;18.28;60.58;100085.63;7711079;32;39526;-74
2022/06/12 03:03:08;;;;;;;5.93;3.72;;;;;;;18.29;60.54;100078.94;7710603;32;40660;-73
2022/06/12 03:07:24;;;;;;;5.60;3.40;;;;;;;18.32;60.30;100081.09;7707571;32;38673;-73
2022/06/12 03:11:44;;;;;;;7.30;3.70;;;;;;;18.19;60.75;100084.75;7710862;32;38055;-75
2022/06/12 03:16:16;;;;;;;5.18;3.12;;;;;;;18.01;61.30;100089.34;7710486;32;39303;-74
2022/06/12 03:20:39;;;;;;;4.97;3.47;;;;;;;18.33;60.41;100095.69;7710260;32;40809;-74
2022/06/12 03:25:20;;;;;;;6.17;4.03;;;;;;;18.45;59.89;100100.63;7709394;32;38751;-74
2022/06/12 03:30:01;;;;;;;7.65;3.50;;;;;;;18.31;60.50;100093.25;7710469;32;37121;-74
2022/06/12 03:34:54;;;;;;;6.25;3.05;;;;;;;18.45;60.25;100095.09;7709247;32;40062;-73
2022/06/12 03:39:20;;;;;;;7.20;3.57;;;;;;;18.31;60.68;100107.03;7709336;32;40021;-73
2022/06/12 03:43:41;;;;;;;5.05;3.60;;;;;;;18.41;60.44;100107.94;7710081;32;38685;-74
2022/06/12 03:48:51;;;;;;;4.78;3.30;;;;;;;18.39;60.48;100100.75;7708898;32;37048;-74
2022/06/12 03:53:20;;;;;;;4.90;3.60;;;;;;;18.17;61.36;100100.81;7706071;32;37162;-75
2022/06/12 03:57:54;;;;;;;7.32;3.62;;;;;;;18.12;61.72;100114.72;7697328;32;39884;-75
2022/06/12 04:02:16;;;;;;;4.65;3.30;;;;;;;18.26;61.17;100115.44;7709035;32;37510;-73
2022/06/12 04:06:32;;;;;;;8.52;4.05;;;;;;;18.33;60.96;100113.09;7711977;32;37084;-74
2022/06/12 04:10:51;;;;;;;7.95;3.55;;;;;;;18.35;60.84;100112.75;7711538;32;39185;-74
2022/06/12 04:15:28;;;;;;;5.00;3.30;;;;;;;18.55;60.39;100116.91;7712970;32;40897;-74
2022/06/12 04:20:00;;;;;;;5.32;3.20;;;;;;;18.50;60.48;100120.62;7711867;32;38799;-74
2022/06/12 04:24:57;;;;;;;6.68;3.25;;;;;;;18.43;60.94;100127.75;7712869;32;37715;-74
2022/06/12 04:29:13;;;;;;;10.13;3.60;;;;;;;18.48;60.77;100128.41;7708805;32;39337;-73
2022/06/12 04:33:52;;;;;;;6.53;3.12;;;;;;;18.50;60.65;100122.56;7710726;32;39913;-74
2022/06/12 04:38:08;;;;;;;5.43;3.35;;;;;;;18.52;60.64;100117.53;7711689;32;38097;-74
2022/06/12 04:42:30;;;;;;;5.57;3.05;;;;;;;18.54;60.52;100115.28;7712587;32;37315;-74
2022/06/12 04:46:49;;;;;;;8.55;3.58;;;;;;;18.75;59.67;100121.09;7711601;32;39943;-75
2022/06/12 04:51:06;;;;;;;7.47;3.35;;;;;;;18.69;59.93;100123.16;7712644;32;40007;-81
2022/06/12 04:55:22;;;;;;;4.45;3.22;;;;;;;19.14;59.92;100117.50;7711135;32;38774;-80
2022/06/12 04:59:39;;;;;;;7.82;3.53;;;;;;;19.34;58.98;100112.50;7712588;32;37146;-81
2022/06/12 05:03:56;;;;;;;5.37;3.20;;;;;;;19.57;58.04;100109.59;7712237;32;39902;-81
2022/06/12 05:08:12;;;;;;;7.70;3.30;;;;;;;19.78;57.39;100113.38;7712284;32;40647;-80
2022/06/12 05:12:29;;;;;;;5.20;3.30;;;;;;;20.02;56.25;100106.50;7711839;32;37909;-80
2022/06/12 05:16:51;;;;;;;4.20;3.10;;;;;;;20.14;55.29;100109.41;7711462;32;37205;-81
2022/06/12 05:21:07;;;;;;;4.55;3.00;;;;;;;20.39;53.77;100110.50;7711016;32;39882;-78
2022/06/12 05:25:24;;;;;;;6.25;3.12;;;;;;;20.44;53.75;100113.09;7710273;32;40830;-80
2022/06/12 05:29:41;;;;;;;5.85;2.78;;;;;;;20.70;53.48;100116.97;7711876;32;37726;-79
2022/06/12 05:33:57;;;;;;;4.82;2.92;;;;;;;20.76;53.44;100108.09;7685390;32;37870;-79
2022/06/12 05:38:13;;;;;;;5.22;3.20;;;;;;;20.91;52.88;100115.06;7694873;32;39366;-80
2022/06/12 05:42:30;;;;;;;8.57;3.00;;;;;;;21.07;52.80;100114.50;7710657;32;40186;-79
2022/06/12 05:46:47;;;;;;;7.37;3.20;;;;;;;21.21;52.98;100117.81;7711849;32;38632;-78
2022/06/12 05:51:03;;;;;;;4.25;2.90;;;;;;;21.33;52.39;100122.66;7711862;32;37082;-78
2022/06/12 05:55:20;;;;;;;5.72;2.85;;;;;;;21.52;52.17;100128.56;7711240;32;39473;-78
2022/06/12 05:59:36;;;;;;;5.87;3.03;;;;;;;21.59;51.87;100133.59;7708832;32;40563;-79
2022/06/12 06:03:53;;;;;;;6.55;3.08;;;;;;;21.74;51.99;100119.09;7707416;32;39163;-79
2022/06/12 06:08:10;;;;;;;7.37;3.03;;;;;;;22.12;50.86;100122.84;7708241;32;37721;-79
2022/06/12 06:12:27;;;;;;;5.68;3.10;;;;;;;21.97;50.60;100115.16;7709978;32;39123;-78
2022/06/12 06:16:43;;;;;;;4.82;2.90;;;;;;;22.11;50.38;100122.06;7711612;32;39691;-78
2022/06/12 06:21:00;;;;;;;4.22;2.85;;;;;;;22.04;50.91;100116.25;7710292;32;38144;-78
2022/06/12 06:25:16;;;;;;;5.72;3.30;;;;;;;22.10;51.07;100123.19;7711188;32;37101;-72
2022/06/12 06:29:32;;;;;;;5.87;3.33;;;;;;;22.21;49.78;100126.34;7711161;32;40438;-80
2022/06/12 06:33:48;;;;;;;12.02;3.35;;;;;;;21.59;51.53;100121.69;7711235;32;39691;-79
2022/06/12 06:38:05;;;;;;;4.30;2.90;;;;;;;21.38;52.44;100128.81;7711277;32;37639;-76
2022/06/12 06:42:21;;;;;;;6.43;3.10;;;;;;;21.93;50.73;100123.34;7710974;32;37189;-75
2022/06/12 06:46:38;;;;;;;7.45;3.50;;;;;;;22.13;49.48;100122.53;7710769;32;40364;-82
2022/06/12 06:50:55;;;;;;;8.95;2.80;;;;;;;22.66;48.53;100116.41;7710038;32;39945;-82
2022/06/12 06:55:12;;;;;;;7.72;2.95;;;;;;;22.82;48.65;100125.69;7709364;32;38545;-82
2022/06/12 06:59:28;;;;;;;6.85;2.78;;;;;;;22.80;47.55;100118.84;7710709;32;37741;-73
2022/06/12 11:10:22;;;;;;;5.00;2.35;;;;;;;29.32;32.11;99994.00;7733745;27;20094;-71
2022/06/12 11:14:44;;;;;;;6.82;2.10;;;;;;;29.48;30.97;100002.09;7629489;32;39457;-72
2022/06/12 11:19:34;;;;;;;7.55;2.60;;;;;;;28.54;29.98;99994.28;7631283;32;39913;-72
2022/06/12 11:24:12;;;;;;;4.35;2.33;;;;;;;28.79;30.41;99997.31;7630136;32;37967;-72
2022/06/12 11:29:05;;;;;;;3.40;2.33;;;;;;;29.52;31.80;99988.84;7630831;32;37799;-72
2022/06/12 11:33:57;;;;;;;4.30;2.30;;;;;;;29.57;28.99;99994.09;7640540;32;39322;-72
2022/06/12 11:38:21;;;;;;;4.20;2.28;;;;;;;29.39;28.45;99990.44;7645918;32;39636;-71
2022/06/12 11:42:49;;;;;;;3.58;2.40;;;;;;;29.69;29.04;99990.09;7655025;32;37848;-71
2022/06/12 11:47:43;;;;;;;6.20;2.12;;;;;;;29.38;29.79;99980.38;7655722;32;37223;-70
2022/06/12 11:52:11;;;;;;;5.05;2.10;;;;;;;29.48;30.11;99978.81;7656291;32;39456;-70
2022/06/12 11:56:30;;;;;;;4.65;2.20;;;;;;;29.83;27.19;99974.53;7656113;32;39943;-70
2022/06/12 12:01:07;;;;;;;4.15;2.37;;;;;;;29.45;28.69;99971.97;7655926;32;38557;-70
2022/06/12 12:05:35;;;;;;;3.62;2.30;;;;;;;29.58;29.88;99978.84;7643039;32;37062;-71
2022/06/12 12:10:14;;;;;;;6.10;2.15;;;;;;;29.52;29.77;99966.38;7656163;32;39384;-71
2022/06/12 12:14:34;;;;;;;3.55;2.08;;;;;;;29.90;28.04;99955.66;7648303;32;39930;-69
2022/06/12 12:18:58;;;;;;;1.90;1.80;;;;;;;29.59;32.90;99963.59;7635280;32;37586;-71
2022/06/12 12:23:30;;;;;;;3.28;2.33;;;;;;;30.61;31.12;99953.25;7640805;32;37206;-70
2022/06/12 12:27:50;;;;;;;2.35;2.05;;;;;;;30.73;29.12;99950.00;7659471;32;39330;-71
2022/06/12 12:32:08;;;;;;;9.35;2.28;;;;;;;30.44;28.76;99938.00;7646051;32;40533;-70
2022/06/12 12:41:12;;;;;;;3.03;2.20;;;;;;;31.16;28.54;99920.94;7659445;32;36994;-71
2022/06/12 12:45:32;;;;;;;5.30;1.95;;;;;;;31.77;26.32;99912.13;7659687;32;40134;-72
2022/06/12 12:50:13;;;;;;;3.30;2.35;;;;;;;31.11;28.11;99912.91;7652650;32;40884;-71
2022/06/12 12:54:40;;;;;;;;;;;;;;;30.65;29.01;99912.66;7657915;32;37828;-72
2022/06/12 12:59:06;;;;;;;3.97;2.00;;;;;;;30.76;29.17;99909.81;7658635;32;37910;-72
2022/06/12 13:03:32;;;;;;;5.25;2.60;;;;;;;30.67;29.64;99913.03;7658915;32;39437;-72
2022/06/12 13:08:32;;;;;;;3.20;2.30;;;;;;;30.43;28.53;99911.91;7659198;32;40806;-72
2022/06/12 13:12:48;;;;;;;4.15;2.10;;;;;;;29.91;29.84;99906.69;7657717;32;38087;-72
2022/06/12 13:17:21;;;;;;;3.70;2.22;;;;;;;30.43;27.69;99909.09;7658145;32;37069;-72
2022/06/12 13:22:11;;;;;;;4.28;2.00;;;;;;;30.56;28.35;99901.00;7657661;32;39264;-72
2022/06/12 13:26:30;;;;;;;5.32;2.35;;;;;;;29.82;29.49;99900.69;7644850;32;40059;-73
2022/06/12 13:30:46;;;;;;;2.10;1.90;;;;;;;30.36;28.61;99902.69;7644968;32;38476;-72
2022/06/12 13:35:06;;;;;;;3.85;1.87;;;;;;;30.23;29.17;99900.22;7643802;32;37591;-72
2022/06/12 13:39:32;;;;;;;3.45;2.30;;;;;;;30.90;27.87;99884.41;7645343;32;39597;-72
2022/06/12 13:43:48;;;;;;;4.43;2.00;;;;;;;31.49;27.85;99879.31;7644556;32;40101;-73
2022/06/12 13:48:25;;;;;;;3.33;1.90;;;;;;;31.64;27.54;99876.00;7644669;32;37976;-72
2022/06/12 13:52:53;;;;;;;3.62;1.83;;;;;;;30.99;26.44;99872.75;7656335;32;37100;-72
2022/06/12 13:57:16;;;;;;;2.12;1.80;;;;;;;30.96;27.02;99873.59;7657106;32;40170;-70
2022/06/12 14:01:33;;;;;;;4.43;2.20;;;;;;;31.18;26.22;99874.25;7644458;32;40061;-72
2022/06/12 14:05:57;;;;;;;2.72;2.17;;;;;;;30.88;26.90;99874.78;7657839;32;37166;-72
2022/06/12 14:10:41;;;;;;;4.18;2.00;;;;;;;31.01;28.10;99864.72;7658351;32;37825;-72
2022/06/12 14:14:57;;;;;;;4.55;2.22;;;;;;;30.88;27.63;99869.16;7658504;32;39323;-73
2022/06/12 14:19:23;;;;;;;3.10;2.15;;;;;;;30.54;27.77;99869.69;7658683;32;39990;-73
2022/06/12 14:23:44;;;;;;;3.62;2.05;;;;;;;31.36;27.63;99868.53;7658464;32;38670;-73
2022/06/12 14:28:12;;;;;;;6.85;2.00;;;;;;;31.78;28.29;99866.63;7645488;32;37064;-72
2022/06/12 14:32:30;;;;;;;2.78;2.00;;;;;;;31.63;26.84;99862.31;7658467;32;40007;-73
2022/06/12 14:36:55;;;;;;;2.08;1.83;;;;;;;31.55;26.35;99852.34;7658374;32;40050;-73
2022/06/12 14:41:20;;;;;;;2.85;1.70;;;;;;;31.77;25.29;99856.59;7658518;32;37951;-73
2022/06/12 14:45:36;;;;;;;3.10;1.85;;;;;;;31.70;24.51;99853.03;7657852;32;37821;-73
2022/06/12 14:49:54;;;;;;;4.45;2.00;;;;;;;31.80;26.38;99855.75;7657502;32;39388;-73
2022/06/12 14:54:10;;;;;;;2.35;1.85;;;;;;;31.99;23.79;99859.22;7658098;32;40010;-72
2022/06/12 14:58:31;;;;;;;2.53;2.10;;;;;;;31.87;25.02;99845.62;7658074;32;37877;-72
2022/06/12 15:02:47;;;;;;;5.60;2.12;;;;;;;31.34;26.12;99841.97;7658092;32;37817;-71
2022/06/12 15:07:03;;;;;;;5.70;1.90;;;;;;;32.18;26.80;99836.13;7657930;32;39422;-72
2022/06/12 15:11:25;;;;;;;2.80;1.83;;;;;;;31.26;26.12;99833.59;7657952;32;39925;-72
2022/06/12 15:15:41;;;;;;;3.20;1.67;;;;;;;31.73;25.36;99824.81;7657847;32;37894;-72
2022/06/12 15:19:58;;;;;;;2.50;1.65;;;;;;;31.10;25.77;99821.22;7657736;32;37335;-72
2022/06/12 15:24:18;;;;;;;2.15;1.80;;;;;;;31.30;25.08;99807.44;7657685;32;40065;-72
2022/06/12 15:33:09;;;;;;;3.53;1.60;;;;;;;31.25;26.66;99805.84;7657575;32;38634;-72
2022/06/12 15:37:27;;;;;;;2.28;1.50;;;;;;;31.20;26.27;99804.28;7657504;32;37093;-72
2022/06/12 15:41:43;;;;;;;2.78;1.50;;;;;;;31.20;25.40;99797.81;7657355;32;39988;-73
2022/06/12 15:46:01;;;;;;;1.45;1.33;;;;;;;31.00;26.10;99797.56;7657125;32;40027;-72
2022/06/12 15:50:17;;;;;;;1.52;1.30;;;;;;;30.91;25.34;99795.19;7657023;32;38712;-73
2022/06/12 15:54:34;;;;;;;4.35;1.30;;;;;;;30.42;25.91;99791.38;7657018;32;36998;-73
2022/06/12 15:58:51;;;;;;;1.60;1.23;;;;;;;30.81;25.47;99788.37;7658541;32;37587;-73
2022/06/12 16:03:07;;;;;;;2.85;1.35;;;;;;;31.20;25.72;99787.37;7660081;32;40203;-73
2022/06/12 16:07:24;;;;;;;9.15;1.30;;;;;;;30.90;25.07;99785.91;7659989;32;38683;-74
2022/06/12 16:11:44;;;;;;;2.28;1.45;;;;;;;31.33;26.47;99784.88;7660182;32;36684;-74
2022/06/12 16:16:00;;;;;;;3.10;1.75;;;;;;;31.19;25.59;99782.97;7660172;32;39510;-73
2022/06/12 16:20:17;;;;;;;3.58;1.60;;;;;;;31.14;25.94;99776.97;7660013;32;39933;-72
2022/06/12 16:24:33;;;;;;;3.62;1.30;;;;;;;31.05;27.05;99772.59;7659841;32;38632;-73
2022/06/12 16:28:49;;;;;;;4.12;1.42;;;;;;;30.64;25.69;99778.81;7659983;32;37070;-74
2022/06/12 16:33:06;;;;;;;3.60;1.80;;;;;;;30.67;27.16;99775.19;7659879;32;39498;-73
2022/06/12 16:37:22;;;;;;;1.55;1.37;;;;;;;30.44;26.40;99778.53;7659703;32;39990;-73
2022/06/12 16:41:53;;;;;;;2.40;1.60;;;;;;;30.75;25.33;99764.69;7659943;32;37297;-73
2022/06/12 16:46:09;;;;;;;2.22;1.30;;;;;;;30.59;26.76;99767.19;7659665;32;37400;-72
2022/06/12 16:50:25;;;;;;;3.08;1.23;;;;;;;30.38;26.74;99765.28;7659724;32;39402;-73
2022/06/12 16:54:45;;;;;;;4.60;1.50;;;;;;;30.49;27.25;99772.47;7659581;32;40750;-74
2022/06/12 16:59:01;;;;;;;4.95;1.75;;;;;;;30.51;27.05;99764.44;7659557;32;37710;-73
2022/06/12 17:03:17;;;;;;;4.60;1.60;;;;;;;30.89;26.36;99758.19;7659471;32;37115;-74
2022/06/12 17:07:39;;;;;;;1.92;1.20;;;;;;;30.31;26.22;99761.25;7659358;32;39316;-72
2022/06/12 17:11:56;;;;;;;4.10;1.73;;;;;;;30.39;25.84;99767.69;7658660;32;39958;-74
2022/06/12 17:16:15;;;;;;;4.72;1.52;;;;;;;30.09;26.50;99760.50;7659047;32;38790;-73
2022/06/12 17:20:44;;;;;;;3.97;1.48;;;;;;;30.04;26.64;99763.75;7659310;32;37052;-73
2022/06/12 17:25:03;;;;;;;5.95;1.48;;;;;;;29.83;27.08;99764.59;7658572;32;39061;-74
2022/06/12 17:29:19;;;;;;;5.90;1.67;;;;;;;29.39;28.04;99780.63;7644734;32;39859;-73
2022/06/12 17:33:36;;;;;;;3.37;1.50;;;;;;;29.21;28.61;99777.81;7658426;32;38695;-73
2022/06/12 17:37:52;;;;;;;6.40;1.80;;;;;;;29.31;28.61;99775.41;7658847;32;36745;-73
2022/06/12 17:42:15;;;;;;;7.93;1.60;;;;;;;29.05;29.34;99785.78;7658891;32;39504;-73
2022/06/12 17:46:33;;;;;;;2.78;1.50;;;;;;;29.32;29.80;99774.19;7658516;32;40242;-73
2022/06/12 17:50:49;;;;;;;3.87;1.70;;;;;;;28.87;32.91;99777.31;7658782;32;38694;-74
2022/06/12 17:55:05;;;;;;;2.47;1.37;;;;;;;29.11;32.55;99775.75;7658519;32;37837;-73
2022/06/12 17:59:22;;;;;;;2.03;1.37;;;;;;;28.59;33.36;99784.44;7658814;32;39276;-73
2022/06/12 18:03:38;;;;;;;3.22;1.62;;;;;;;28.41;34.02;99784.34;7658463;32;40022;-75
2022/06/12 18:07:54;;;;;;;2.30;1.50;;;;;;;28.29;34.63;99787.47;7657673;32;38798;-76
2022/06/12 18:12:11;;;;;;;2.40;1.50;;;;;;;27.96;34.94;99786.50;7658084;32;37138;-75
2022/06/12 18:21:03;;;;;;;2.60;1.50;;;;;;;27.84;34.64;99795.19;7658339;32;39886;-75
2022/06/12 18:25:19;;;;;;;3.12;1.50;;;;;;;27.61;34.64;99787.78;7658090;32;37870;-78
2022/06/12 18:29:35;;;;;;;3.28;1.80;;;;;;;27.73;34.70;99786.69;7648032;32;332957;-76
2022/06/12 18:33:52;;;;;;;1.98;1.62;;;;;;;27.65;34.52;99790.63;7657891;32;39472;-76
2022/06/12 18:38:08;;;;;;;5.65;1.40;;;;;;;27.42;34.83;99788.81;7644395;32;40008;-76
2022/06/12 18:42:24;;;;;;;3.37;1.67;;;;;;;27.24;35.87;99794.25;7658242;32;38757;-75
2022/06/12 18:46:40;;;;;;;1.87;1.40;;;;;;;27.17;35.26;99792.16;7658206;32;37126;-76
2022/06/12 18:50:56;;;;;;;2.45;1.70;;;;;;;27.05;35.90;99800.06;7657807;32;39124;-76
2022/06/12 18:55:13;;;;;;;4.07;1.60;;;;;;;26.86;37.31;99803.84;7658070;32;40529;-72
2022/06/12 18:59:29;;;;;;;4.85;1.62;;;;;;;26.69;36.70;99808.03;7658074;32;37540;-72
2022/06/12 19:03:47;;;;;;;2.45;1.62;;;;;;;26.41;38.36;99814.84;7647994;32;37894;-73
2022/06/12 19:08:03;;;;;;;2.30;1.62;;;;;;;26.30;38.24;99823.06;7657623;32;39961;-72
2022/06/12 19:12:19;;;;;;;1.75;1.50;;;;;;;26.23;38.36;99818.19;7657895;32;40737;-72
2022/06/12 19:16:56;;;;;;;3.20;1.80;;;;;;;25.98;38.18;99833.78;7656475;32;39757;-72
2022/06/12 19:21:13;;;;;;;6.10;1.60;;;;;;;25.79;39.75;99837.44;7657557;32;37210;-70
2022/06/12 19:25:29;;;;;;;2.53;1.87;;;;;;;25.85;37.69;99835.91;7657363;32;39359;-72
2022/06/12 19:29:45;;;;;;;1.80;1.52;;;;;;;25.77;37.63;99839.78;7656727;32;39951;-72
2022/06/12 19:34:02;;;;;;;2.17;1.70;;;;;;;25.57;39.31;99850.22;7656630;32;37928;-72
2022/06/12 19:38:18;;;;;;;2.50;1.60;;;;;;;25.42;39.11;99855.56;7656977;32;38155;-71
2022/06/12 19:42:36;;;;;;;3.95;1.70;;;;;;;25.18;39.29;99845.50;7654252;32;39061;-72
2022/06/12 19:46:55;;;;;;;3.97;1.60;;;;;;;25.26;39.80;99843.69;7653748;32;39481;-72
2022/06/12 19:51:11;;;;;;;4.07;1.70;;;;;;;25.20;39.46;99845.09;7653937;32;37778;-72
2022/06/12 19:55:27;;;;;;;3.60;1.87;;;;;;;24.97;40.38;99837.50;7654561;32;37123;-72
2022/06/12 19:59:44;;;;;;;7.70;1.98;;;;;;;24.92;40.60;99844.22;7656515;32;40278;-73
2022/06/12 20:08:35;;;;;;;5.40;2.00;;;;;;;24.70;39.76;99833.78;7650548;32;38096;-70
2022/06/12 20:12:51;;;;;;;3.10;1.80;;;;;;;24.30;42.57;99843.22;7652534;32;37987;-70
2022/06/12 20:17:07;;;;;;;2.60;1.80;;;;;;;24.37;42.31;99844.22;7649713;32;40117;-71
2022/06/12 20:21:23;;;;;;;2.58;1.77;;;;;;;24.25;42.90;99835.97;7681505;32;39914;-71
2022/06/12 20:25:40;;;;;;;5.10;1.98;;;;;;;24.04;43.73;99841.03;7682534;32;37977;-70
2022/06/12 20:29:56;;;;;;;3.35;1.85;;;;;;;23.94;44.24;99840.44;7659210;32;38026;-72
2022/06/12 20:34:13;;;;;;;3.53;2.15;;;;;;;24.14;41.44;99840.50;7656114;32;39994;-73
2022/06/12 20:38:29;;;;;;;5.28;2.20;;;;;;;23.88;40.77;99839.09;7652782;32;39866;-72
2022/06/12 20:42:45;;;;;;;4.50;2.30;;;;;;;23.89;40.42;99851.06;7652523;32;37724;-72
2022/06/12 20:47:02;;;;;;;4.68;2.00;;;;;;;23.67;41.51;99855.25;7655799;32;37032;-73
2022/06/12 20:51:18;;;;;;;3.15;2.15;;;;;;;23.79;41.92;99846.78;7656737;32;40054;-72
2022/06/12 20:55:34;;;;;;;3.30;2.00;;;;;;;23.63;42.49;99858.72;7659188;32;39981;-73
2022/06/12 20:59:51;;;;;;;5.05;1.73;;;;;;;23.59;42.06;99860.62;7658963;32;38002;-73
2022/06/12 21:04:07;;;;;;;5.20;2.30;;;;;;;23.62;41.99;99859.09;7659299;32;38212;-72
2022/06/12 21:08:24;;;;;;;4.47;2.15;;;;;;;23.15;44.65;99854.28;7659247;32;39385;-74
2022/06/12 21:12:40;;;;;;;2.92;1.85;;;;;;;23.06;45.12;99855.22;7659171;32;40921;-73
2022/06/12 21:16:57;;;;;;;2.70;2.03;;;;;;;23.04;44.53;99851.16;7659322;32;37970;-73
2022/06/12 21:21:13;;;;;;;2.30;2.00;;;;;;;22.99;45.56;99859.75;7659173;32;36913;-73
2022/06/12 21:25:30;;;;;;;3.87;2.30;;;;;;;22.80;46.27;99868.72;7659015;32;39532;-73
2022/06/12 21:29:46;;;;;;;3.10;2.10;;;;;;;22.93;46.40;99864.75;7658547;32;39977;-73
2022/06/12 21:34:02;;;;;;;3.85;2.35;;;;;;;22.65;47.30;99873.06;7658990;32;37907;-74
2022/06/12 21:38:18;;;;;;;4.90;2.45;;;;;;;22.50;47.93;99874.59;7658716;32;37832;-74
2022/06/12 21:42:38;;;;;;;3.70;2.37;;;;;;;22.41;48.27;99879.50;7658895;32;38971;-74
2022/06/12 21:46:55;;;;;;;2.30;2.10;;;;;;;22.27;49.41;99875.09;7658812;32;39475;-74
2022/06/12 21:54:31;;;;;;;3.35;2.10;;;;;;;22.42;48.80;99859.69;7658752;32;38590;-74
2022/06/12 21:55:49;;;;;;;4.95;2.15;;;;;;;22.37;48.69;99862.72;7658170;32;37797;-74
2022/06/12 22:00:11;;;;;;;2.40;2.05;;;;;;;22.31;48.86;99872.44;7658661;32;40066;-74
2022/06/12 22:04:27;;;;;;;8.13;2.33;;;;;;;22.10;49.03;99883.66;7658638;32;40556;-74
2022/06/12 22:08:44;;;;;;;2.50;2.30;;;;;;;22.25;47.89;99888.50;7658393;32;38701;-74
2022/06/12 22:13:00;;;;;;;3.25;2.17;;;;;;;21.87;48.56;99900.75;7658675;32;37803;-74
2022/06/12 22:17:17;;;;;;;5.20;2.22;;;;;;;21.75;49.12;99882.13;7658486;32;40113;-74
2022/06/12 22:21:33;;;;;;;2.65;2.25;;;;;;;21.74;49.06;99891.59;7658461;32;40047;-74
2022/06/12 22:25:50;;;;;;;2.78;2.10;;;;;;;21.97;48.26;99884.78;7657911;32;38031;-74
2022/06/12 22:30:07;;;;;;;3.47;2.30;;;;;;;21.64;49.18;99897.56;7658179;32;37274;-74
2022/06/12 22:34:23;;;;;;;6.97;2.85;;;;;;;21.51;51.10;99909.81;7658428;32;39227;-74
2022/06/12 22:38:39;;;;;;;4.28;2.30;;;;;;;21.39;51.40;99905.00;7658313;32;39988;-74
2022/06/12 22:42:55;;;;;;;3.45;2.08;;;;;;;21.33;52.21;99904.41;7658058;32;38088;-74
2022/06/12 22:47:11;;;;;;;3.20;2.50;;;;;;;21.24;52.46;99897.34;7658227;32;37130;-74
2022/06/12 22:51:27;;;;;;;4.70;2.80;;;;;;;21.11;53.30;99900.06;7658206;32;39342;-74
2022/06/12 22:55:43;;;;;;;8.48;2.33;;;;;;;21.12;53.09;99898.91;7658065;32;40019;-74
2022/06/12 22:59:59;;;;;;;6.50;2.30;;;;;;;21.06;53.19;99891.12;7657907;32;38242;-74
2022/06/12 23:04:16;;;;;;;8.57;2.58;;;;;;;20.95;52.94;99888.78;7657752;32;37836;-74
2022/06/12 23:08:33;;;;;;;8.70;2.40;;;;;;;20.89;52.82;99879.06;7656184;32;39405;-74
2022/06/12 23:12:49;;;;;;;4.90;3.05;;;;;;;20.81;52.29;99879.94;7657813;32;39987;-74
2022/06/12 23:17:05;;;;;;;6.30;2.60;;;;;;;20.82;52.47;99864.94;7657705;32;37848;-74
2022/06/12 23:21:22;;;;;;;3.28;2.28;;;;;;;20.88;51.90;99874.66;7657699;32;37113;-74
2022/06/12 23:25:38;;;;;;;4.72;2.53;;;;;;;20.74;52.13;99874.13;7657250;32;40245;-74
2022/06/12 23:29:54;;;;;;;5.47;2.33;;;;;;;20.80;52.22;99870.03;7657258;32;40725;-74
2022/06/12 23:34:11;;;;;;;4.45;2.40;;;;;;;20.93;52.08;99863.37;7657307;32;39184;-74
2022/06/12 23:38:27;;;;;;;3.22;2.20;;;;;;;20.80;52.32;99867.25;7657426;32;37911;-73
2022/06/12 23:42:43;;;;;;;3.30;2.30;;;;;;;20.84;52.09;99859.88;7657297;32;39313;-73
2022/06/12 23:47:02;;;;;;;5.57;2.50;;;;;;;20.84;52.04;99864.63;7657046;32;40054;-74
2022/06/12 23:51:19;;;;;;;3.37;2.37;;;;;;;20.64;52.15;99864.25;7656941;32;37921;-74
2022/06/12 23:55:35;;;;;;;4.70;2.42;;;;;;;20.70;52.03;99862.13;7656919;32;37776;-74
2022/06/12 23:59:55;;;;;;;4.90;2.20;;;;;;;20.52;52.89;99866.94;7656641;32;39246;-74
